Time;durP1;ratioP1;P1;durP2;ratioP2;P2;SDS_P1;SDS_P2;PMS_P1;PMS_P2;Temp;Humidity;BMP_temperature;BMP_pressure;BME280_temperature;BME280_humidity;BME280_pressure;Samples;Min_cycle;Max_cycle;Signal;HPM_P1;HPM_P2
2024/01/01 00:00:38;;;;;;;79.00;38.37;;;3.00;99.90;;;;;;5022755;28;21526;-60
2024/01/01 00:03:03;;;;;;;76.77;37.27;;;3.10;99.90;;;;;;5021114;28;20559;-59
2024/01/01 00:05:29;;;;;;;37.40;20.47;;;3.10;99.90;;;;;;5023023;28;20183;-60
2024/01/01 00:07:56;;;;;;;37.73;20.30;;;3.10;99.90;;;;;;5022945;28;20172;-59
2024/01/01 00:10:21;;;;;;;31.07;18.23;;;3.10;99.90;;;;;;5023685;28;20207;-60
2024/01/01 00:12:47;;;;;;;30.73;15.80;;;3.10;99.90;;;;;;5017844;28;20434;-59
2024/01/01 00:15:13;;;;;;;24.17;14.27;;;3.10;99.90;;;;;;5021563;28;20177;-60
2024/01/01 00:17:39;;;;;;;29.30;15.07;;;3.10;99.90;;;;;;5024396;28;20187;-60
2024/01/01 00:20:06;;;;;;;37.43;19.07;;;3.10;99.90;;;;;;5022537;28;20455;-59
2024/01/01 00:22:32;;;;;;;45.87;22.53;;;3.10;99.90;;;;;;5019354;28;20458;-59
2024/01/01 00:24:59;;;;;;;23.00;12.50;;;3.10;99.90;;;;;;5020767;28;20479;-59
2024/01/01 00:27:25;;;;;;;32.83;19.10;;;3.10;99.90;;;;;;5018431;28;20171;-59
2024/01/01 00:29:51;;;;;;;46.80;24.43;;;3.10;99.90;;;;;;5023625;28;20480;-59
2024/01/01 00:32:17;;;;;;;46.73;24.60;;;3.10;99.90;;;;;;5019735;28;20191;-59
2024/01/01 00:34:44;;;;;;;44.23;18.97;;;3.10;99.90;;;;;;5018335;28;20171;-60
2024/01/01 00:37:10;;;;;;;22.40;13.90;;;3.10;99.90;;;;;;5021139;28;20167;-59
2024/01/01 00:39:36;;;;;;;21.90;12.13;;;3.10;99.90;;;;;;5021368;28;20458;-60
2024/01/01 00:42:01;;;;;;;22.27;12.60;;;3.20;99.90;;;;;;5023878;28;20436;-59
2024/01/01 00:44:27;;;;;;;22.30;11.80;;;3.20;99.90;;;;;;5019728;28;20546;-60
2024/01/01 00:46:53;;;;;;;20.90;12.83;;;3.20;99.90;;;;;;5017161;28;20566;-60
2024/01/01 00:49:19;;;;;;;24.70;12.53;;;3.20;99.90;;;;;;5012930;28;20203;-59
2024/01/01 00:51:44;;;;;;;30.20;18.50;;;3.20;99.90;;;;;;5019367;28;20458;-59
2024/01/01 00:54:13;;;;;;;29.43;14.50;;;3.20;99.90;;;;;;5020090;28;20660;-59
2024/01/01 00:56:38;;;;;;;24.70;13.77;;;3.20;99.90;;;;;;5020965;28;20185;-60
2024/01/01 00:59:04;;;;;;;26.47;14.90;;;3.20;99.90;;;;;;5020581;28;20465;-59
2024/01/01 01:01:29;;;;;;;31.17;14.77;;;3.20;99.90;;;;;;5005925;28;20318;-59
2024/01/01 01:03:55;;;;;;;27.93;13.00;;;3.20;99.90;;;;;;5016325;28;20207;-60
2024/01/01 01:06:21;;;;;;;25.00;13.43;;;3.20;99.90;;;;;;5016129;28;20179;-59
2024/01/01 01:08:46;;;;;;;30.73;13.70;;;3.20;99.90;;;;;;5021021;28;20255;-59
2024/01/01 01:11:12;;;;;;;33.10;15.50;;;3.20;99.90;;;;;;5016753;28;20211;-59
2024/01/01 01:13:38;;;;;;;27.60;13.53;;;3.20;99.90;;;;;;5019643;28;20176;-60
2024/01/01 01:16:04;;;;;;;24.70;13.63;;;3.20;99.90;;;;;;5016114;28;20734;-61
2024/01/01 01:18:29;;;;;;;23.60;12.87;;;3.20;99.90;;;;;;5017403;28;20195;-59
2024/01/01 01:20:55;;;;;;;25.80;14.00;;;3.20;99.90;;;;;;5016055;28;20808;-59
2024/01/01 01:23:20;;;;;;;20.73;11.63;;;3.20;99.90;;;;;;5015059;28;20187;-59
2024/01/01 01:25:46;;;;;;;14.23;8.70;;;3.20;99.90;;;;;;5017987;28;20180;-58
2024/01/01 01:28:21;;;;;;;13.53;7.90;;;3.20;99.90;;;;;;5017502;28;20176;-59
2024/01/01 01:30:46;;;;;;;13.47;7.43;;;3.20;99.90;;;;;;5014724;28;20214;-59
2024/01/01 01:33:12;;;;;;;12.80;6.77;;;3.20;99.90;;;;;;5017281;28;20430;-60
2024/01/01 01:35:38;;;;;;;19.00;8.37;;;3.20;99.90;;;;;;5018132;28;20268;-59
2024/01/01 01:38:03;;;;;;;13.23;7.30;;;3.20;99.90;;;;;;5021853;28;20175;-59
2024/01/01 01:40:29;;;;;;;14.63;7.07;;;3.20;99.90;;;;;;5018994;28;20286;-58
2024/01/01 01:42:55;;;;;;;12.73;7.33;;;3.20;99.90;;;;;;5020156;28;20203;-59
2024/01/01 01:45:20;;;;;;;15.40;8.80;;;3.20;99.90;;;;;;5017831;28;20590;-61
2024/01/01 01:47:46;;;;;;;29.17;15.60;;;3.20;99.90;;;;;;5016895;28;20194;-59
2024/01/01 01:50:12;;;;;;;41.47;19.30;;;3.20;99.90;;;;;;5014978;28;20202;-59
2024/01/01 01:52:39;;;;;;;28.13;14.77;;;3.20;99.90;;;;;;5013014;28;20418;-59
2024/01/01 01:55:05;;;;;;;17.17;9.40;;;3.20;99.90;;;;;;5016769;28;20235;-59
2024/01/01 01:57:33;;;;;;;16.73;8.53;;;3.20;99.90;;;;;;5016705;28;20437;-60
2024/01/01 01:59:59;;;;;;;13.50;7.43;;;3.20;99.90;;;;;;5017802;28;20807;-59
2024/01/01 02:02:28;;;;;;;17.53;8.00;;;3.10;99.90;;;;;;5016450;28;20802;-59
2024/01/01 02:04:53;;;;;;;13.23;7.73;;;3.10;99.90;;;;;;5017419;28;20525;-60
2024/01/01 02:07:20;;;;;;;14.30;6.67;;;3.10;99.90;;;;;;5018997;28;21450;-59
2024/01/01 02:09:46;;;;;;;12.50;7.00;;;3.10;99.90;;;;;;5019350;28;20192;-59
2024/01/01 02:12:12;;;;;;;13.60;7.23;;;3.10;99.90;;;;;;5020405;28;20801;-59
2024/01/01 02:14:37;;;;;;;16.37;7.70;;;3.10;99.90;;;;;;5017721;28;20231;-60
2024/01/01 02:17:03;;;;;;;13.13;7.20;;;3.10;99.90;;;;;;5017186;28;20206;-58
2024/01/01 02:19:29;;;;;;;13.73;7.70;;;3.10;99.90;;;;;;5016576;28;20234;-58
2024/01/01 02:21:58;;;;;;;13.03;6.70;;;3.10;99.90;;;;;;5019160;28;20230;-59
2024/01/01 02:24:23;;;;;;;14.03;8.13;;;3.10;99.90;;;;;;5017752;28;20745;-60
2024/01/01 02:26:49;;;;;;;21.30;8.47;;;3.10;99.90;;;;;;5018942;28;20415;-59
2024/01/01 02:29:16;;;;;;;13.03;6.73;;;3.10;99.90;;;;;;5013825;28;20205;-60
2024/01/01 02:31:41;;;;;;;17.27;7.67;;;3.10;99.90;;;;;;5021997;28;20203;-60
2024/01/01 02:34:07;;;;;;;10.00;6.23;;;3.20;99.90;;;;;;5018375;28;20448;-59
2024/01/01 02:36:38;;;;;;;12.13;7.10;;;3.20;99.90;;;;;;5021901;28;20215;-60
2024/01/01 02:39:06;;;;;;;12.80;7.13;;;3.20;99.90;;;;;;5016153;28;20706;-60
2024/01/01 02:41:34;;;;;;;16.33;7.10;;;3.20;99.90;;;;;;5023804;28;20959;-60
2024/01/01 02:43:59;;;;;;;14.53;6.87;;;3.20;99.90;;;;;;5017023;28;20434;-60
2024/01/01 02:46:25;;;;;;;13.97;6.27;;;3.20;99.90;;;;;;5013759;28;20422;-60
2024/01/01 02:48:51;;;;;;;10.93;5.03;;;3.30;99.90;;;;;;5015347;28;20448;-60
2024/01/01 02:51:16;;;;;;;8.30;5.40;;;3.30;99.90;;;;;;5022181;28;20210;-60
2024/01/01 02:53:42;;;;;;;10.40;5.23;;;3.30;99.90;;;;;;5026173;28;20183;-60
2024/01/01 02:56:17;;;;;;;7.87;5.00;;;3.30;99.90;;;;;;5023970;28;20259;-60
2024/01/01 02:58:44;;;;;;;8.57;4.40;;;3.40;99.90;;;;;;5019375;28;20595;-60
2024/01/01 03:01:09;;;;;;;7.13;4.23;;;3.30;99.90;;;;;;5017748;28;20432;-62
2024/01/01 03:03:35;;;;;;;7.30;4.27;;;3.40;99.90;;;;;;5018355;28;20495;-60
2024/01/01 03:06:00;;;;;;;7.07;4.30;;;3.30;99.90;;;;;;5018057;28;20184;-59
2024/01/01 03:08:26;;;;;;;6.50;4.03;;;3.40;99.90;;;;;;5022157;28;20184;-59
2024/01/01 03:10:52;;;;;;;8.27;4.10;;;3.30;99.90;;;;;;5029445;28;20850;-60
2024/01/01 03:13:17;;;;;;;6.10;4.17;;;3.40;99.90;;;;;;5027933;28;20171;-60
2024/01/01 03:15:43;;;;;;;8.13;4.03;;;3.40;99.90;;;;;;5016620;28;20169;-60
2024/01/01 03:18:11;;;;;;;8.93;4.37;;;3.30;99.90;;;;;;5024752;28;20870;-60
2024/01/01 03:20:37;;;;;;;10.00;4.13;;;3.30;99.90;;;;;;5024609;28;20219;-60
2024/01/01 03:23:03;;;;;;;9.63;4.20;;;3.30;99.90;;;;;;5025546;28;20442;-60
2024/01/01 03:25:29;;;;;;;7.13;4.50;;;3.30;99.90;;;;;;5022945;28;20471;-60
2024/01/01 03:27:55;;;;;;;6.53;4.00;;;3.30;99.90;;;;;;5028271;28;21135;-60
2024/01/01 03:30:21;;;;;;;7.87;4.00;;;3.20;99.90;;;;;;5025564;28;20215;-58
2024/01/01 03:32:47;;;;;;;7.53;4.60;;;3.20;99.90;;;;;;5024328;28;20445;-60
2024/01/01 03:35:13;;;;;;;9.43;4.50;;;3.20;99.90;;;;;;5021490;28;20458;-60
2024/01/01 03:37:39;;;;;;;7.70;3.70;;;3.20;99.90;;;;;;5024845;28;20180;-59
2024/01/01 03:40:06;;;;;;;6.30;4.20;;;3.10;99.90;;;;;;5023678;28;20437;-60
2024/01/01 03:42:32;;;;;;;5.30;3.60;;;3.10;99.90;;;;;;5020230;28;20615;-62
2024/01/01 03:44:57;;;;;;;7.77;4.23;;;3.10;99.90;;;;;;5020958;28;20410;-60
2024/01/01 03:47:23;;;;;;;7.40;3.57;;;3.00;99.90;;;;;;5023820;28;20183;-60
2024/01/01 03:49:48;;;;;;;6.37;3.53;;;3.00;99.90;;;;;;5019041;28;20199;-59
2024/01/01 03:52:14;;;;;;;8.80;3.30;;;3.00;99.90;;;;;;5016905;28;20243;-61
2024/01/01 03:54:40;;;;;;;3.93;2.63;;;3.00;99.90;;;;;;5016528;28;20542;-58
2024/01/01 03:57:06;;;;;;;6.20;3.70;;;3.00;99.90;;;;;;5024784;28;20169;-59
2024/01/01 03:59:31;;;;;;;3.83;2.80;;;2.90;99.90;;;;;;5015248;28;20450;-59
2024/01/01 04:01:57;;;;;;;8.53;3.10;;;2.90;99.90;;;;;;5023621;28;20562;-59
2024/01/01 04:04:23;;;;;;;5.20;2.87;;;3.00;99.90;;;;;;5018863;28;20176;-59
2024/01/01 04:06:48;;;;;;;5.40;2.63;;;3.00;99.90;;;;;;5018253;28;20665;-59
2024/01/01 04:09:14;;;;;;;9.50;2.90;;;3.00;99.90;;;;;;5022125;28;20219;-59
2024/01/01 04:11:39;;;;;;;5.30;2.60;;;3.00;99.90;;;;;;5024572;28;20203;-60
2024/01/01 04:14:05;;;;;;;4.03;2.50;;;3.00;99.90;;;;;;5017583;28;20592;-59
2024/01/01 04:16:30;;;;;;;4.40;2.37;;;3.00;99.90;;;;;;5025461;28;20175;-59
2024/01/01 04:18:57;;;;;;;3.33;2.00;;;3.00;99.90;;;;;;5024080;28;20171;-59
2024/01/01 04:21:23;;;;;;;4.80;2.70;;;3.00;99.90;;;;;;5025293;28;20176;-59
2024/01/01 04:23:48;;;;;;;3.27;2.60;;;3.00;99.90;;;;;;5021621;28;20816;-59
2024/01/01 04:26:14;;;;;;;4.63;3.03;;;3.00;99.90;;;;;;5022293;28;20250;-59
2024/01/01 04:28:41;;;;;;;5.43;2.20;;;3.00;99.90;;;;;;5021219;28;20184;-59
2024/01/01 04:31:06;;;;;;;5.10;2.30;;;3.00;99.90;;;;;;5017748;28;20630;-59
2024/01/01 04:33:32;;;;;;;3.13;2.50;;;2.90;99.90;;;;;;5013299;28;20470;-60
2024/01/01 04:35:57;;;;;;;6.60;2.13;;;3.00;99.90;;;;;;5020646;28;20242;-59
2024/01/01 04:38:23;;;;;;;3.97;2.40;;;2.90;99.90;;;;;;5023701;28;20204;-59
2024/01/01 04:40:49;;;;;;;3.10;2.30;;;2.90;99.90;;;;;;5014955;28;20260;-59
2024/01/01 04:43:14;;;;;;;3.10;2.30;;;2.90;99.90;;;;;;5022572;28;20201;-58
2024/01/01 04:45:40;;;;;;;4.60;2.00;;;2.90;99.90;;;;;;5020729;28;20928;-59
2024/01/01 04:48:06;;;;;;;9.17;1.90;;;2.90;99.90;;;;;;5022404;28;20401;-59
2024/01/01 04:50:32;;;;;;;5.73;2.47;;;2.90;99.90;;;;;;5018144;28;20362;-58
2024/01/01 04:52:58;;;;;;;13.17;2.47;;;2.90;99.90;;;;;;5020234;28;20517;-59
2024/01/01 04:55:24;;;;;;;6.57;2.10;;;2.90;99.90;;;;;;5022441;28;20178;-59
2024/01/01 04:57:49;;;;;;;2.80;1.80;;;2.90;99.90;;;;;;5017459;28;20178;-60
2024/01/01 05:00:15;;;;;;;3.27;2.17;;;2.90;99.90;;;;;;5025248;28;20195;-59
2024/01/01 05:02:41;;;;;;;3.60;2.20;;;2.90;99.90;;;;;;5014108;28;20567;-59
2024/01/01 05:05:08;;;;;;;3.07;1.93;;;2.90;99.90;;;;;;5024070;28;20821;-59
2024/01/01 05:07:36;;;;;;;8.57;2.40;;;2.90;99.90;;;;;;5015868;28;20237;-58
2024/01/01 05:10:01;;;;;;;3.90;1.80;;;2.90;99.90;;;;;;5022486;28;20554;-58
2024/01/01 05:12:27;;;;;;;4.00;2.37;;;3.00;99.90;;;;;;5022790;28;20489;-60
2024/01/01 05:14:53;;;;;;;9.50;2.30;;;3.00;99.90;;;;;;5019096;28;20202;-59
2024/01/01 05:17:19;;;;;;;5.73;2.00;;;3.00;99.90;;;;;;5018358;28;20671;-59
2024/01/01 05:19:44;;;;;;;8.87;3.17;;;3.00;99.90;;;;;;5014003;28;20640;-59
2024/01/01 05:22:10;;;;;;;2.27;2.00;;;3.00;99.90;;;;;;5023426;28;20180;-59
2024/01/01 05:24:36;;;;;;;1.90;1.73;;;2.90;99.90;;;;;;5014659;28;20240;-60
2024/01/01 05:27:03;;;;;;;3.87;2.37;;;2.90;99.90;;;;;;5017924;28;20168;-60
2024/01/01 05:29:30;;;;;;;3.60;2.43;;;2.90;99.90;;;;;;5014162;28;20287;-60
2024/01/01 05:31:56;;;;;;;5.40;2.53;;;2.90;99.90;;;;;;5019660;28;20826;-60
2024/01/01 05:34:22;;;;;;;4.03;2.67;;;2.90;99.90;;;;;;5015752;28;20439;-60
2024/01/01 05:36:47;;;;;;;9.27;2.43;;;2.90;99.90;;;;;;5016576;28;20179;-59
2024/01/01 05:39:13;;;;;;;5.80;2.63;;;2.90;99.90;;;;;;5015033;28;20441;-60
2024/01/01 05:41:38;;;;;;;8.20;2.07;;;2.90;99.90;;;;;;5015917;28;20180;-59
2024/01/01 05:44:04;;;;;;;6.80;2.50;;;2.90;99.90;;;;;;5026846;28;20206;-59
2024/01/01 05:46:31;;;;;;;3.40;2.30;;;2.90;99.90;;;;;;5020606;28;20211;-60
2024/01/01 05:48:57;;;;;;;5.27;2.73;;;2.90;99.90;;;;;;5018784;28;20173;-60
2024/01/01 05:51:22;;;;;;;7.13;2.83;;;3.00;99.90;;;;;;5023340;28;20848;-59
2024/01/01 05:53:48;;;;;;;6.10;2.83;;;3.00;99.90;;;;;;5017204;28;20507;-58
2024/01/01 05:56:13;;;;;;;6.17;3.40;;;3.00;99.90;;;;;;5015662;28;20674;-60
2024/01/01 05:58:39;;;;;;;3.67;2.40;;;3.00;99.90;;;;;;5016345;28;20183;-60
2024/01/01 06:01:05;;;;;;;5.00;2.60;;;2.90;99.90;;;;;;5016221;28;20200;-59
2024/01/01 06:03:30;;;;;;;7.33;2.60;;;3.00;99.90;;;;;;5024782;28;20207;-59
2024/01/01 06:05:56;;;;;;;4.30;2.77;;;2.90;99.90;;;;;;5016247;28;20219;-59
2024/01/01 06:08:22;;;;;;;4.70;2.30;;;2.90;99.90;;;;;;5018191;28;20172;-60
2024/01/01 06:10:47;;;;;;;4.50;2.30;;;2.90;99.90;;;;;;5013669;28;20206;-58
2024/01/01 06:13:14;;;;;;;6.97;2.43;;;2.90;99.90;;;;;;5022188;28;20560;-59
2024/01/01 06:15:40;;;;;;;11.90;2.77;;;2.90;99.90;;;;;;5021350;28;20587;-59
2024/01/01 06:18:06;;;;;;;4.77;2.73;;;2.90;99.90;;;;;;5020097;28;20425;-59
2024/01/01 06:20:32;;;;;;;9.03;2.93;;;2.90;99.90;;;;;;5016537;28;20458;-59
2024/01/01 06:22:57;;;;;;;4.13;2.43;;;2.90;99.90;;;;;;5016111;28;20549;-60
2024/01/01 06:25:23;;;;;;;6.93;2.60;;;2.90;99.90;;;;;;5021312;28;20971;-59
2024/01/01 06:27:50;;;;;;;4.53;2.80;;;2.90;99.90;;;;;;5018397;28;20176;-60
2024/01/01 06:30:15;;;;;;;7.63;2.63;;;2.90;99.90;;;;;;5015542;28;20209;-59
2024/01/01 06:32:41;;;;;;;5.67;2.40;;;2.90;99.90;;;;;;5020178;28;20433;-60
2024/01/01 06:35:07;;;;;;;6.73;3.10;;;2.90;99.90;;;;;;5018425;28;20211;-59
2024/01/01 06:37:33;;;;;;;4.47;2.50;;;2.80;99.90;;;;;;5018706;28;20222;-59
2024/01/01 06:39:58;;;;;;;16.63;2.90;;;2.90;99.90;;;;;;5022595;28;20459;-60
2024/01/01 06:42:24;;;;;;;8.33;3.37;;;2.90;99.90;;;;;;5019487;28;20172;-59
2024/01/01 06:44:49;;;;;;;5.47;2.70;;;2.90;99.90;;;;;;5009257;28;20225;-59
2024/01/01 06:47:15;;;;;;;10.33;2.77;;;2.90;99.90;;;;;;5024744;28;20172;-60
2024/01/01 06:49:40;;;;;;;10.07;2.77;;;2.90;99.90;;;;;;5022262;28;20195;-59
2024/01/01 06:52:07;;;;;;;5.30;2.57;;;2.90;99.90;;;;;;5023882;28;20737;-59
2024/01/01 06:54:33;;;;;;;11.93;3.13;;;2.90;99.90;;;;;;5013830;28;20762;-59
2024/01/01 06:56:58;;;;;;;8.40;2.53;;;3.00;99.90;;;;;;5019413;28;20426;-59
2024/01/01 06:59:28;;;;;;;19.43;3.40;;;3.00;99.90;;;;;;5049647;28;20336;-59
2024/01/01 07:01:54;;;;;;;6.67;3.50;;;3.00;99.90;;;;;;5024033;28;20674;-59
2024/01/01 07:04:19;;;;;;;6.07;2.73;;;3.00;99.90;;;;;;5017440;28;20443;-60
2024/01/01 07:06:45;;;;;;;6.80;3.20;;;3.00;99.90;;;;;;5014942;28;20180;-60
2024/01/01 07:09:11;;;;;;;3.13;2.13;;;3.10;99.90;;;;;;5021221;28;20739;-59
2024/01/01 07:11:36;;;;;;;7.00;2.10;;;3.10;99.90;;;;;;5016880;28;20576;-59
2024/01/01 07:14:03;;;;;;;5.30;1.97;;;3.00;99.90;;;;;;5021302;28;20183;-59
2024/01/01 07:16:28;;;;;;;4.37;2.40;;;3.10;99.90;;;;;;5019431;28;20168;-60
2024/01/01 07:18:54;;;;;;;8.40;2.03;;;3.10;99.90;;;;;;5025356;28;20412;-59
2024/01/01 07:21:20;;;;;;;9.90;2.20;;;3.10;99.90;;;;;;5018617;28;20252;-59
2024/01/01 07:23:46;;;;;;;5.10;2.40;;;3.10;99.90;;;;;;5022281;28;20462;-61
2024/01/01 07:26:11;;;;;;;3.60;1.83;;;3.10;99.90;;;;;;5016436;28;20179;-60
2024/01/01 07:28:37;;;;;;;3.50;2.50;;;3.10;99.90;;;;;;5015939;28;20222;-59
2024/01/01 07:31:03;;;;;;;7.80;2.30;;;3.20;99.90;;;;;;5021785;28;20206;-59
2024/01/01 07:33:28;;;;;;;3.27;2.00;;;3.20;99.90;;;;;;5020745;28;20263;-60
2024/01/01 07:35:54;;;;;;;5.80;2.73;;;3.20;99.90;;;;;;5020259;28;20730;-60
2024/01/01 07:38:20;;;;;;;4.40;2.30;;;3.20;99.90;;;;;;5018714;28;20183;-59
2024/01/01 07:40:45;;;;;;;3.17;2.40;;;3.30;99.90;;;;;;5044901;28;20442;-60
2024/01/01 07:43:11;;;;;;;3.67;2.10;;;3.30;99.90;;;;;;5024864;28;20635;-60
2024/01/01 07:45:37;;;;;;;5.40;2.17;;;3.30;99.90;;;;;;5024921;28;20847;-60
2024/01/01 07:48:02;;;;;;;2.57;2.10;;;3.30;99.90;;;;;;5019470;28;20180;-60
2024/01/01 07:50:28;;;;;;;4.07;1.60;;;3.30;99.90;;;;;;5022217;28;20211;-60
2024/01/01 07:52:54;;;;;;;4.23;2.30;;;3.30;99.90;;;;;;5023320;28;20169;-59
2024/01/01 07:55:20;;;;;;;3.70;2.07;;;3.30;99.90;;;;;;5025736;28;20884;-59
2024/01/01 07:57:49;;;;;;;2.43;1.90;;;3.30;99.90;;;;;;5019122;28;20264;-58
2024/01/01 08:00:15;;;;;;;7.27;1.90;;;3.30;99.90;;;;;;5022139;28;20461;-60
2024/01/01 08:02:43;;;;;;;3.53;2.20;;;3.30;99.90;;;;;;5013479;28;20436;-61
2024/01/01 08:05:08;;;;;;;2.70;1.60;;;3.40;99.90;;;;;;5022176;28;20423;-59
2024/01/01 08:07:34;;;;;;;4.40;1.80;;;3.40;99.90;;;;;;5019994;28;20530;-60
2024/01/01 08:10:00;;;;;;;7.50;2.53;;;3.40;99.90;;;;;;5016642;28;20199;-60
2024/01/01 08:12:26;;;;;;;4.57;2.37;;;3.40;99.90;;;;;;5021574;28;20207;-60
2024/01/01 08:14:51;;;;;;;4.30;2.90;;;3.40;99.90;;;;;;5016377;28;20550;-60
2024/01/01 08:17:17;;;;;;;6.30;2.23;;;3.40;99.90;;;;;;5017437;28;20434;-58
2024/01/01 08:19:42;;;;;;;6.20;2.90;;;3.40;99.90;;;;;;5015299;28;20204;-59
2024/01/01 08:22:08;;;;;;;5.23;2.30;;;3.40;99.90;;;;;;5023733;28;20191;-60
2024/01/01 08:24:34;;;;;;;4.30;2.80;;;3.40;99.90;;;;;;5017672;28;20195;-60
2024/01/01 08:26:59;;;;;;;6.73;2.97;;;3.50;99.90;;;;;;5019603;28;20211;-60
2024/01/01 08:29:25;;;;;;;3.77;2.30;;;3.40;99.90;;;;;;5022315;28;20195;-59
2024/01/01 08:31:50;;;;;;;3.97;2.57;;;3.40;99.90;;;;;;5023205;28;20725;-59
2024/01/01 08:34:16;;;;;;;9.17;2.57;;;3.40;99.90;;;;;;5019577;28;20179;-59
2024/01/01 08:36:41;;;;;;;5.67;2.90;;;3.50;99.90;;;;;;5019675;28;20180;-59
2024/01/01 08:39:09;;;;;;;2.37;2.17;;;3.50;99.90;;;;;;5020639;28;20179;-59
2024/01/01 08:41:41;;;;;;;2.50;1.97;;;3.50;99.90;;;;;;5016938;28;20211;-59
2024/01/01 08:44:07;;;;;;;5.33;2.50;;;3.50;99.90;;;;;;5017485;28;20545;-59
2024/01/01 08:46:33;;;;;;;3.20;1.97;;;3.50;99.90;;;;;;5024850;28;20503;-59
2024/01/01 08:48:58;;;;;;;1.93;1.70;;;3.50;99.90;;;;;;5017679;28;20191;-60
2024/01/01 08:51:24;;;;;;;8.20;1.97;;;3.50;99.90;;;;;;5018105;28;20192;-60
2024/01/01 08:53:50;;;;;;;2.00;1.80;;;3.50;99.90;;;;;;5022576;28;20688;-58
2024/01/01 08:56:15;;;;;;;3.43;1.80;;;3.60;99.90;;;;;;5018821;28;20192;-60
2024/01/01 08:58:41;;;;;;;2.33;1.70;;;3.60;99.90;;;;;;5023525;28;20229;-60
2024/01/01 09:01:06;;;;;;;1.97;1.57;;;3.60;99.90;;;;;;5024180;28;20317;-60
2024/01/01 09:03:32;;;;;;;2.17;1.97;;;3.70;99.90;;;;;;5015417;28;20556;-59
2024/01/01 09:05:58;;;;;;;6.13;2.70;;;3.70;99.90;;;;;;5018288;28;20334;-61
2024/01/01 09:08:24;;;;;;;2.03;1.83;;;3.70;99.90;;;;;;5020280;28;20182;-60
2024/01/01 09:10:50;;;;;;;5.00;2.40;;;3.70;99.90;;;;;;5018654;28;20617;-59
2024/01/01 09:13:16;;;;;;;2.20;2.00;;;3.80;99.90;;;;;;5024590;28;20437;-59
2024/01/01 09:15:41;;;;;;;3.37;2.10;;;3.80;99.90;;;;;;5017137;28;20211;-60
2024/01/01 09:18:10;;;;;;;4.70;1.93;;;3.80;99.90;;;;;;5018882;28;20187;-60
2024/01/01 09:20:36;;;;;;;2.83;2.20;;;3.90;99.90;;;;;;5016553;28;20682;-59
2024/01/01 09:23:01;;;;;;;2.37;1.80;;;3.90;99.90;;;;;;5018600;28;20422;-60
2024/01/01 09:25:27;;;;;;;2.30;2.00;;;3.90;99.90;;;;;;5024560;28;20257;-60
2024/01/01 09:27:53;;;;;;;2.77;2.03;;;4.00;99.90;;;;;;5016830;28;20179;-60
2024/01/01 09:30:18;;;;;;;4.50;2.60;;;4.00;99.90;;;;;;5018130;28;20261;-59
2024/01/01 09:32:44;;;;;;;2.27;1.40;;;4.10;99.90;;;;;;5020502;28;20447;-60
2024/01/01 09:35:09;;;;;;;2.60;1.40;;;4.10;99.90;;;;;;5028867;28;20638;-60
2024/01/01 09:37:37;;;;;;;2.37;1.50;;;4.20;99.90;;;;;;5025010;28;20680;-59
2024/01/01 09:40:04;;;;;;;3.70;1.53;;;4.20;99.90;;;;;;5018617;28;20192;-59
2024/01/01 09:42:29;;;;;;;5.17;2.47;;;4.30;99.90;;;;;;5017754;28;20435;-60
2024/01/01 09:44:55;;;;;;;3.50;2.03;;;4.30;99.90;;;;;;5018670;28;20488;-60
2024/01/01 09:47:21;;;;;;;4.07;2.00;;;4.40;99.90;;;;;;5004639;28;20179;-59
2024/01/01 09:49:46;;;;;;;7.50;2.23;;;4.40;99.90;;;;;;5018980;28;20201;-60
2024/01/01 09:52:14;;;;;;;5.60;2.10;;;4.40;99.90;;;;;;5022606;28;20203;-59
2024/01/01 09:54:40;;;;;;;5.93;2.83;;;4.40;99.90;;;;;;5016117;28;20181;-59
2024/01/01 09:57:05;;;;;;;4.00;1.73;;;4.40;99.90;;;;;;5018097;28;20476;-58
2024/01/01 09:59:36;;;;;;;8.43;2.00;;;4.40;99.90;;;;;;5019047;28;20440;-61
2024/01/01 10:02:11;;;;;;;3.23;1.93;;;4.30;99.90;;;;;;5013869;28;20674;-59
2024/01/01 10:04:37;;;;;;;6.73;1.93;;;4.30;99.90;;;;;;5022897;28;20429;-60
2024/01/01 10:07:03;;;;;;;2.83;1.83;;;4.40;99.90;;;;;;5016200;28;20520;-59
2024/01/01 10:09:30;;;;;;;7.47;1.60;;;4.40;99.90;;;;;;5021972;28;20442;-60
2024/01/01 10:12:11;;;;;;;2.40;1.57;;;4.40;99.90;;;;;;5015519;28;20291;-61
2024/01/01 10:14:50;;;;;;;3.23;1.40;;;4.40;99.90;;;;;;5019857;28;20434;-60
2024/01/01 10:17:17;;;;;;;4.63;1.70;;;4.50;99.90;;;;;;5016429;28;21588;-60
2024/01/01 10:19:58;;;;;;;8.70;1.93;;;4.60;99.90;;;;;;5020547;28;20466;-60
2024/01/01 10:22:29;;;;;;;7.10;1.60;;;4.60;99.90;;;;;;5014520;28;20432;-60
2024/01/01 10:25:17;;;;;;;4.33;1.90;;;4.60;99.90;;;;;;5017189;28;20808;-60
2024/01/01 10:27:44;;;;;;;4.80;1.67;;;4.70;99.90;;;;;;5017943;28;20441;-60
2024/01/01 10:30:10;;;;;;;1.93;1.40;;;4.70;99.90;;;;;;5018902;28;20464;-60
2024/01/01 10:32:37;;;;;;;2.03;1.10;;;4.70;99.90;;;;;;5019934;28;20854;-60
2024/01/01 10:35:03;;;;;;;4.57;1.80;;;4.70;99.90;;;;;;5014708;28;21142;-60
2024/01/01 10:37:30;;;;;;;2.83;1.30;;;4.80;99.90;;;;;;5011270;28;20526;-61
2024/01/01 10:40:04;;;;;;;3.57;1.50;;;4.70;99.90;;;;;;5022836;28;20466;-60
2024/01/01 10:42:33;;;;;;;6.07;2.43;;;4.70;99.90;;;;;;5020063;28;20438;-60
2024/01/01 10:45:03;;;;;;;3.80;1.37;;;4.70;99.90;;;;;;5019199;28;21053;-60
2024/01/01 10:47:29;;;;;;;3.20;1.40;;;4.70;99.90;;;;;;5021625;28;20433;-60
2024/01/01 10:50:07;;;;;;;5.63;1.70;;;4.80;99.90;;;;;;5019861;28;20454;-59
2024/01/01 10:53:04;;;;;;;3.57;1.70;;;4.90;99.90;;;;;;5031728;28;20446;-59
2024/01/01 10:56:07;;;;;;;3.10;1.90;;;5.10;99.90;;;;;;5012746;28;20466;-60
2024/01/01 10:59:11;;;;;;;3.67;1.87;;;5.30;99.90;;;;;;5017050;28;21141;-60
2024/01/01 11:01:38;;;;;;;7.13;2.10;;;5.40;99.90;;;;;;5004205;28;20512;-61
2024/01/01 11:04:05;;;;;;;6.00;2.00;;;5.60;99.90;;;;;;5020996;28;21016;-61
2024/01/01 11:06:32;;;;;;;2.60;2.00;;;5.60;99.90;;;;;;5025456;28;20599;-57
2024/01/01 11:09:17;;;;;;;9.83;2.30;;;5.60;99.90;;;;;;5020713;28;20435;-59
2024/01/01 11:11:46;;;;;;;5.10;1.53;;;5.60;99.90;;;;;;5019657;28;20505;-60
2024/01/01 11:14:23;;;;;;;2.60;1.40;;;5.60;99.90;;;;;;5021457;28;21639;-60
2024/01/01 11:16:51;;;;;;;7.80;1.80;;;5.50;99.90;;;;;;5016591;28;20430;-60
2024/01/01 11:19:43;;;;;;;5.90;2.20;;;5.50;99.90;;;;;;5019437;28;20459;-61
2024/01/01 11:22:23;;;;;;;6.70;2.00;;;5.40;99.90;;;;;;5019502;28;20430;-60
2024/01/01 11:24:50;;;;;;;4.27;1.77;;;5.40;99.90;;;;;;5024622;28;20437;-59
2024/01/01 11:27:38;;;;;;;4.83;1.87;;;5.30;99.90;;;;;;5023223;28;20439;-60
2024/01/01 11:30:04;;;;;;;3.03;1.40;;;5.30;99.90;;;;;;5023626;28;20576;-60
2024/01/01 11:32:30;;;;;;;3.73;1.87;;;5.40;99.90;;;;;;5020892;28;20517;-60
2024/01/01 11:35:12;;;;;;;6.63;1.60;;;5.40;99.90;;;;;;5024607;28;20176;-62
2024/01/01 11:37:42;;;;;;;2.00;1.27;;;5.50;99.90;;;;;;5018093;28;20190;-60
2024/01/01 11:40:09;;;;;;;4.67;2.10;;;5.50;99.90;;;;;;5019910;28;20453;-61
2024/01/01 11:42:35;;;;;;;7.93;3.60;;;5.50;99.90;;;;;;5022880;28;20434;-61
2024/01/01 11:45:05;;;;;;;4.33;1.63;;;5.60;99.90;;;;;;5020158;28;20505;-61
2024/01/01 11:47:31;;;;;;;4.43;1.97;;;5.70;99.90;;;;;;5014264;28;20451;-60
2024/01/01 11:49:57;;;;;;;3.60;1.73;;;5.70;99.90;;;;;;5022148;28;20470;-61
2024/01/01 11:52:23;;;;;;;6.07;2.00;;;5.80;99.90;;;;;;5016670;28;21495;-60
2024/01/01 11:54:48;;;;;;;5.43;2.60;;;5.80;99.90;;;;;;5019567;28;20569;-60
2024/01/01 11:57:14;;;;;;;7.93;1.97;;;5.80;99.90;;;;;;5018597;28;20558;-61
2024/01/01 11:59:40;;;;;;;4.37;1.50;;;5.80;99.90;;;;;;5024397;28;20203;-61
2024/01/01 12:02:06;;;;;;;1.83;1.30;;;5.80;99.90;;;;;;5020754;28;20176;-59
2024/01/01 12:04:32;;;;;;;2.83;1.50;;;5.80;99.90;;;;;;5021357;28;20515;-60
2024/01/01 12:06:57;;;;;;;3.33;1.80;;;5.70;99.90;;;;;;5019161;28;20461;-61
2024/01/01 12:09:23;;;;;;;1.57;1.20;;;5.80;99.90;;;;;;5023755;28;21028;-59
2024/01/01 12:11:49;;;;;;;3.40;1.43;;;5.80;99.90;;;;;;5018441;28;20576;-59
2024/01/01 12:14:15;;;;;;;4.23;1.40;;;5.80;99.90;;;;;;5020258;28;20430;-60
2024/01/01 12:16:42;;;;;;;5.37;1.43;;;5.80;99.90;;;;;;5016630;28;20278;-60
2024/01/01 12:19:19;;;;;;;2.77;2.07;;;5.90;99.90;;;;;;5022018;28;20215;-60
2024/01/01 12:21:45;;;;;;;9.03;2.17;;;5.90;99.90;;;;;;5023095;28;20437;-60
2024/01/01 12:24:18;;;;;;;3.53;1.60;;;5.80;99.90;;;;;;5020219;28;20504;-60
2024/01/01 12:26:50;;;;;;;7.13;1.70;;;5.80;99.90;;;;;;5017632;28;20442;-61
2024/01/01 12:29:20;;;;;;;3.83;1.60;;;5.80;99.90;;;;;;5026602;28;20466;-59
2024/01/01 12:31:50;;;;;;;1.20;1.10;;;5.80;99.90;;;;;;5017842;28;20964;-61
2024/01/01 12:34:19;;;;;;;3.97;1.50;;;5.60;99.90;;;;;;5022324;28;20449;-60
2024/01/01 12:36:46;;;;;;;4.90;1.50;;;5.60;99.90;;;;;;5018099;28;20952;-61
2024/01/01 12:39:15;;;;;;;3.80;1.90;;;5.50;99.90;;;;;;5021157;28;20526;-61
2024/01/01 12:41:41;;;;;;;5.63;1.87;;;5.50;99.90;;;;;;5020548;28;20442;-60
2024/01/01 12:44:06;;;;;;;8.00;1.77;;;5.50;99.90;;;;;;5022505;28;20442;-61
2024/01/01 12:46:33;;;;;;;3.90;1.50;;;5.50;99.90;;;;;;5020898;28;20188;-60
2024/01/01 12:48:59;;;;;;;3.53;1.40;;;5.50;99.90;;;;;;5021592;28;20508;-60
2024/01/01 12:51:27;;;;;;;3.57;1.60;;;5.60;99.90;;;;;;5019684;28;20512;-62